sensor_id;sensor_type;location;lat;lon;timestamp;pressure;altitude;pressure_sealevel;temperature;humidity
27437;BME280;14886;51.586;6.722;2023-07-28T00:00:01;1003.623;;;17.33941;97.2894
27437;BME280;14886;51.586;6.722;2023-07-28T00:05:01;1003.679;;;17.36944;97.23548
27437;BME280;14886;51.586;6.722;2023-07-28T00:10:01;1003.671;;;17.35141;97.24484
27437;BME280;14886;51.586;6.722;2023-07-28T00:15:01;1003.647;;;17.36188;97.25147
27437;BME280;14886;51.586;6.722;2023-07-28T00:20:01;1003.557;;;17.34443;97.3362
27437;BME280;14886;51.586;6.722;2023-07-28T00:25:01;1003.553;;;17.32886;97.25816
27437;BME280;14886;51.586;6.722;2023-07-28T00:30:01;1003.507;;;17.34487;97.24379
27437;BME280;14886;51.586;6.722;2023-07-28T00:35:01;1003.424;;;17.32791;97.29687
27437;BME280;14886;51.586;6.722;2023-07-28T00:40:01;1003.367;;;17.32338;97.20469
27437;BME280;14886;51.586;6.722;2023-07-28T00:45:01;1003.373;;;17.30088;97.23711
27437;BME280;14886;51.586;6.722;2023-07-28T00:50:01;1003.423;;;17.32785;97.2849
27437;BME280;14886;51.586;6.722;2023-07-28T00:55:01;1003.407;;;17.34638;97.27742
27437;BME280;14886;51.586;6.722;2023-07-28T01:00:01;1003.454;;;17.31735;97.36942
27437;BME280;14886;51.586;6.722;2023-07-28T01:05:01;1003.458;;;17.34488;97.27499
27437;BME280;14886;51.586;6.722;2023-07-28T01:10:02;1003.553;;;17.3554;97.32418
27437;BME280;14886;51.586;6.722;2023-07-28T01:15:01;1003.564;;;17.34291;97.33279
27437;BME280;14886;51.586;6.722;2023-07-28T01:20:01;1003.574;;;17.30937;97.37718
27437;BME280;14886;51.586;6.722;2023-07-28T01:25:04;1003.703;;;17.34641;97.2437
27437;BME280;14886;51.586;6.722;2023-07-28T01:30:01;1003.703;;;17.34438;97.13298
27437;BME280;14886;51.586;6.722;2023-07-28T01:35:01;1003.664;;;17.36542;97.13402
27437;BME280;14886;51.586;6.722;2023-07-28T01:40:01;1003.622;;;17.34941;97.15179
27437;BME280;14886;51.586;6.722;2023-07-28T01:45:01;1003.595;;;17.37184;97.27808
27437;BME280;14886;51.586;6.722;2023-07-28T01:50:01;1003.622;;;17.34387;97.28716
27437;BME280;14886;51.586;6.722;2023-07-28T01:55:01;1003.594;;;17.37288;97.26603
27437;BME280;14886;51.586;6.722;2023-07-28T02:00:01;1003.62;;;17.39735;97.18163
27437;BME280;14886;51.586;6.722;2023-07-28T02:05:01;1003.589;;;17.40891;97.175
27437;BME280;14886;51.586;6.722;2023-07-28T02:10:01;1003.588;;;17.41441;97.04916
27437;BME280;14886;51.586;6.722;2023-07-28T02:15:01;1003.571;;;17.42288;97.18486
27437;BME280;14886;51.586;6.722;2023-07-28T02:20:01;1003.597;;;17.40588;97.14378
27437;BME280;14886;51.586;6.722;2023-07-28T02:25:01;1003.603;;;17.41789;97.09946
27437;BME280;14886;51.586;6.722;2023-07-28T02:30:01;1003.655;;;17.41887;97.07104
27437;BME280;14886;51.586;6.722;2023-07-28T02:35:01;1003.678;;;17.44991;97.1562
27437;BME280;14886;51.586;6.722;2023-07-28T02:40:01;1003.713;;;17.43834;97.2075
27437;BME280;14886;51.586;6.722;2023-07-28T02:45:01;1003.758;;;17.42339;97.3557
27437;BME280;14886;51.586;6.722;2023-07-28T02:50:01;1003.819;;;17.43341;97.34203
27437;BME280;14886;51.586;6.722;2023-07-28T02:55:01;1003.878;;;17.45388;97.28352
27437;BME280;14886;51.586;6.722;2023-07-28T03:00:01;1003.918;;;17.44888;97.33161
27437;BME280;14886;51.586;6.722;2023-07-28T03:05:01;1003.921;;;17.44641;97.39973
27437;BME280;14886;51.586;6.722;2023-07-28T03:10:01;1003.96;;;17.45441;97.40971
27437;BME280;14886;51.586;6.722;2023-07-28T03:15:01;1003.991;;;17.45089;97.43797
27437;BME280;14886;51.586;6.722;2023-07-28T03:20:01;1003.979;;;17.44594;97.47305
27437;BME280;14886;51.586;6.722;2023-07-28T03:25:01;1003.891;;;17.44091;97.5049
27437;BME280;14886;51.586;6.722;2023-07-28T03:30:01;1003.933;;;17.41541;97.57839
27437;BME280;14886;51.586;6.722;2023-07-28T03:35:01;1003.95;;;17.4079;97.6508
27437;BME280;14886;51.586;6.722;2023-07-28T03:40:01;1003.986;;;17.44838;97.59248
27437;BME280;14886;51.586;6.722;2023-07-28T03:45:01;1004.008;;;17.45192;97.62365
27437;BME280;14886;51.586;6.722;2023-07-28T03:50:01;1003.944;;;17.45043;97.50581
27437;BME280;14886;51.586;6.722;2023-07-28T03:55:01;1003.998;;;17.47891;97.42693
27437;BME280;14886;51.586;6.722;2023-07-28T04:00:01;1004.007;;;17.49047;97.3773
27437;BME280;14886;51.586;6.722;2023-07-28T04:05:01;1004.086;;;17.52891;97.32576
27437;BME280;14886;51.586;6.722;2023-07-28T04:10:01;1004.086;;;17.54638;97.214
27437;BME280;14886;51.586;6.722;2023-07-28T04:15:01;1004.009;;;17.56989;97.10352
27437;BME280;14886;51.586;6.722;2023-07-28T04:20:01;1003.989;;;17.57391;97.00679
27437;BME280;14886;51.586;6.722;2023-07-28T04:25:01;1004.056;;;17.60035;96.99921
27437;BME280;14886;51.586;6.722;2023-07-28T04:30:01;1004.159;;;17.6464;96.94456
27437;BME280;14886;51.586;6.722;2023-07-28T04:35:01;1004.184;;;17.64541;96.92754
27437;BME280;14886;51.586;6.722;2023-07-28T04:40:01;1004.204;;;17.66489;96.71901
27437;BME280;14886;51.586;6.722;2023-07-28T04:45:01;1004.286;;;17.72388;96.67276
27437;BME280;14886;51.586;6.722;2023-07-28T04:50:01;1004.341;;;17.77491;96.63017
27437;BME280;14886;51.586;6.722;2023-07-28T04:55:01;1004.371;;;17.80888;96.56792
27437;BME280;14886;51.586;6.722;2023-07-28T05:00:01;1004.363;;;17.81785;96.5334
27437;BME280;14886;51.586;6.722;2023-07-28T05:05:01;1004.336;;;17.80341;96.50179
27437;BME280;14886;51.586;6.722;2023-07-28T05:10:01;1004.31;;;17.77838;96.41316
27437;BME280;14886;51.586;6.722;2023-07-28T05:15:01;1004.322;;;17.81438;96.44292
27437;BME280;14886;51.586;6.722;2023-07-28T05:20:01;1004.347;;;17.88343;96.36667
27437;BME280;14886;51.586;6.722;2023-07-28T05:25:01;1004.356;;;17.98636;95.97264
27437;BME280;14886;51.586;6.722;2023-07-28T05:30:01;1004.428;;;18.02889;96.01917
27437;BME280;14886;51.586;6.722;2023-07-28T05:35:01;1004.492;;;18.12239;95.94774
27437;BME280;14886;51.586;6.722;2023-07-28T05:40:01;1004.526;;;18.0874;95.95535
27437;BME280;14886;51.586;6.722;2023-07-28T05:45:01;1004.538;;;18.22489;95.56123
27437;BME280;14886;51.586;6.722;2023-07-28T05:50:01;1004.624;;;18.30838;95.44775
27437;BME280;14886;51.586;6.722;2023-07-28T05:55:01;1004.69;;;18.19338;95.89807
27437;BME280;14886;51.586;6.722;2023-07-28T06:00:01;1004.747;;;18.19591;95.9283
27437;BME280;14886;51.586;6.722;2023-07-28T06:05:01;1004.827;;;18.17492;95.7254
27437;BME280;14886;51.586;6.722;2023-07-28T06:10:01;1004.876;;;18.12342;95.66921
27437;BME280;14886;51.586;6.722;2023-07-28T06:15:01;1004.911;;;18.18338;95.75991
27437;BME280;14886;51.586;6.722;2023-07-28T06:20:01;1004.929;;;18.28991;95.45739
27437;BME280;14886;51.586;6.722;2023-07-28T06:25:01;1004.977;;;18.39838;95.04829
27437;BME280;14886;51.586;6.722;2023-07-28T06:30:01;1005.02;;;18.51738;94.78068
27437;BME280;14886;51.586;6.722;2023-07-28T06:35:01;1005.055;;;18.51535;94.07113
27437;BME280;14886;51.586;6.722;2023-07-28T06:40:01;1005.104;;;18.81737;93.54526
27437;BME280;14886;51.586;6.722;2023-07-28T06:45:01;1005.065;;;18.71885;94.16087
27437;BME280;14886;51.586;6.722;2023-07-28T06:50:01;1005.112;;;19.1129;93.2482
27437;BME280;14886;51.586;6.722;2023-07-28T06:55:01;1005.127;;;19.36838;92.10515
27437;BME280;14886;51.586;6.722;2023-07-28T07:00:01;1005.175;;;19.54238;91.67681
27437;BME280;14886;51.586;6.722;2023-07-28T07:05:01;1005.162;;;19.32994;92.42504
27437;BME280;14886;51.586;6.722;2023-07-28T07:10:01;1005.226;;;19.56738;91.79338
27437;BME280;14886;51.586;6.722;2023-07-28T07:15:00;1005.258;;;19.64291;91.62019
27437;BME280;14886;51.586;6.722;2023-07-28T07:20:00;1005.294;;;19.37291;92.6041
27437;BME280;14886;51.586;6.722;2023-07-28T07:25:00;1005.425;;;19.36938;91.96314
27437;BME280;14886;51.586;6.722;2023-07-28T07:30:00;1005.503;;;19.5649;91.80574
27437;BME280;14886;51.586;6.722;2023-07-28T07:35:00;1005.494;;;19.86644;91.07351
27437;BME280;14886;51.586;6.722;2023-07-28T07:40:00;1005.569;;;20.57086;89.31877
27437;BME280;14886;51.586;6.722;2023-07-28T07:45:00;1005.569;;;20.89933;87.67616
27437;BME280;14886;51.586;6.722;2023-07-28T07:50:00;1005.561;;;20.65141;87.99111
27437;BME280;14886;51.586;6.722;2023-07-28T07:55:00;1005.604;;;20.5219;88.4328
27437;BME280;14886;51.586;6.722;2023-07-28T08:00:00;1005.63;;;20.32639;87.71928
27437;BME280;14886;51.586;6.722;2023-07-28T08:05:00;1005.655;;;19.98141;89.22495
27437;BME280;14886;51.586;6.722;2023-07-28T08:10:00;1005.703;;;20.76238;86.99703
27437;BME280;14886;51.586;6.722;2023-07-28T08:15:00;1005.756;;;20.97897;85.89869
27437;BME280;14886;51.586;6.722;2023-07-28T08:20:00;1005.807;;;21.18492;86.23592
27437;BME280;14886;51.586;6.722;2023-07-28T08:25:00;1005.784;;;21.07238;85.35241
27437;BME280;14886;51.586;6.722;2023-07-28T08:30:00;1005.766;;;20.48191;87.09184
27437;BME280;14886;51.586;6.722;2023-07-28T08:35:00;1005.882;;;21.49339;85.21527
27437;BME280;14886;51.586;6.722;2023-07-28T08:40:00;1005.834;;;21.53988;83.37991
27437;BME280;14886;51.586;6.722;2023-07-28T08:45:00;1005.931;;;21.82544;84.79883
27437;BME280;14886;51.586;6.722;2023-07-28T08:50:00;1005.942;;;21.79347;84.02721
27437;BME280;14886;51.586;6.722;2023-07-28T08:55:00;1005.893;;;21.08488;84.60523
27437;BME280;14886;51.586;6.722;2023-07-28T09:09:13;1006.044;;;21.52999;84.9288
27437;BME280;14886;51.586;6.722;2023-07-28T09:14:13;1006.043;;;21.00395;86.55267
27437;BME280;14886;51.586;6.722;2023-07-28T09:19:13;1005.999;;;21.13296;86.40216
27437;BME280;14886;51.586;6.722;2023-07-28T09:24:13;1006.193;;;23.79451;78.92839
27437;BME280;14886;51.586;6.722;2023-07-28T09:29:14;1006.017;;;23.82147;78.99169
27437;BME280;14886;51.586;6.722;2023-07-28T09:34:22;1006.151;;;23.74536;77.38905
27437;BME280;14886;51.586;6.722;2023-07-28T09:39:15;1006.015;;;24.41192;75.18118
27437;BME280;14886;51.586;6.722;2023-07-28T09:47:58;1006.066;;;24.35594;74.18159
27437;BME280;14886;51.586;6.722;2023-07-28T09:55:50;1005.979;;;23.92388;75.70421
27437;BME280;14886;51.586;6.722;2023-07-28T10:00:50;1005.965;;;22.95737;78.64066
27437;BME280;14886;51.586;6.722;2023-07-28T10:05:50;1006.019;;;22.33148;80.81654
27437;BME280;14886;51.586;6.722;2023-07-28T10:10:50;1006.109;;;22.78393;79.04359
27437;BME280;14886;51.586;6.722;2023-07-28T10:15:50;1006.07;;;22.32784;81.52982
27437;BME280;14886;51.586;6.722;2023-07-28T10:20:50;1006.139;;;23.16841;78.16782
27437;BME280;14886;51.586;6.722;2023-07-28T10:33:47;1006.226;;;22.57491;78.78477
27437;BME280;14886;51.586;6.722;2023-07-28T10:38:47;1006.326;;;24.10591;74.5886
27437;BME280;14886;51.586;6.722;2023-07-28T10:43:47;1006.192;;;22.9615;76.86054
27437;BME280;14886;51.586;6.722;2023-07-28T10:48:48;1006.275;;;23.23204;76.54655
27437;BME280;14886;51.586;6.722;2023-07-28T10:53:47;1006.349;;;24.68602;73.77451
27437;BME280;14886;51.586;6.722;2023-07-28T10:58:47;1006.292;;;24.58653;73.50623
27437;BME280;14886;51.586;6.722;2023-07-28T11:03:47;1006.247;;;24.26048;72.56408
27437;BME280;14886;51.586;6.722;2023-07-28T11:08:47;1006.211;;;23.10599;75.97996
27437;BME280;14886;51.586;6.722;2023-07-28T11:13:47;1006.194;;;22.64848;78.25277
27437;BME280;14886;51.586;6.722;2023-07-28T11:18:47;1006.252;;;22.37645;81.31927
27437;BME280;14886;51.586;6.722;2023-07-28T11:23:47;1006.258;;;22.29247;81.27055
27437;BME280;14886;51.586;6.722;2023-07-28T11:28:47;1006.278;;;22.31549;81.71032
27437;BME280;14886;51.586;6.722;2023-07-28T11:33:47;1006.285;;;22.44995;80.87262
27437;BME280;14886;51.586;6.722;2023-07-28T11:38:47;1006.289;;;22.46403;81.53836
27437;BME280;14886;51.586;6.722;2023-07-28T11:43:47;1006.287;;;22.64451;82.61797
27437;BME280;14886;51.586;6.722;2023-07-28T11:48:47;1006.291;;;22.68946;83.41742
27437;BME280;14886;51.586;6.722;2023-07-28T11:53:47;1006.268;;;22.66647;81.16183
27437;BME280;14886;51.586;6.722;2023-07-28T12:02:26;1006.343;;;26.09301;70.21758
27437;BME280;14886;51.586;6.722;2023-07-28T12:07:29;1006.276;;;24.67048;72.97883
27437;BME280;14886;51.586;6.722;2023-07-28T12:11:15;1006.232;;;25.36942;69.67561
27437;BME280;14886;51.586;6.722;2023-07-28T12:23:57;1005.991;;;25.53146;67.97898
27437;BME280;14886;51.586;6.722;2023-07-28T12:28:57;1006.072;;;27.12502;65.33746
27437;BME280;14886;51.586;6.722;2023-07-28T12:33:57;1005.984;;;27.23458;62.97851
27437;BME280;14886;51.586;6.722;2023-07-28T12:38:57;1006.045;;;27.19947;62.76846
27437;BME280;14886;51.586;6.722;2023-07-28T12:43:57;1006.014;;;27.21554;63.05162
27437;BME280;14886;51.586;6.722;2023-07-28T12:48:57;1005.877;;;26.35603;63.61002
27437;BME280;14886;51.586;6.722;2023-07-28T12:53:57;1005.892;;;25.38299;69.33835
27437;BME280;14886;51.586;6.722;2023-07-28T12:58:57;1005.959;;;24.73696;70.67088
27437;BME280;14886;51.586;6.722;2023-07-28T13:03:57;1005.98;;;24.14248;72.78069
27437;BME280;14886;51.586;6.722;2023-07-28T13:08:57;1006.03;;;25.33249;69.49237
27437;BME280;14886;51.586;6.722;2023-07-28T13:13:57;1006.101;;;25.97704;65.26903
27437;BME280;14886;51.586;6.722;2023-07-28T13:18:57;1006.081;;;26.37848;65.32242
27437;BME280;14886;51.586;6.722;2023-07-28T13:23:57;1006.024;;;25.82498;68.04716
27437;BME280;14886;51.586;6.722;2023-07-28T13:28:57;1005.988;;;25.86398;66.81261
27437;BME280;14886;51.586;6.722;2023-07-28T13:33:57;1005.977;;;25.79844;65.12524
27437;BME280;14886;51.586;6.722;2023-07-28T13:38:57;1006.022;;;27.56194;62.24518
27437;BME280;14886;51.586;6.722;2023-07-28T13:43:57;1005.953;;;28.22997;59.68592
27437;BME280;14886;51.586;6.722;2023-07-28T13:48:57;1005.816;;;25.89745;65.52593
27437;BME280;14886;51.586;6.722;2023-07-28T13:53:57;1005.802;;;25.11551;66.66792
27437;BME280;14886;51.586;6.722;2023-07-28T13:58:57;1005.791;;;24.27247;69.48553
27437;BME280;14886;51.586;6.722;2023-07-28T14:03:57;1005.75;;;25.25948;66.28459
27437;BME280;14886;51.586;6.722;2023-07-28T14:08:57;1005.764;;;26.1495;64.80515
27437;BME280;14886;51.586;6.722;2023-07-28T14:13:57;1005.839;;;27.81295;61.69576
27437;BME280;14886;51.586;6.722;2023-07-28T14:18:57;1005.662;;;26.13151;62.86654
27437;BME280;14886;51.586;6.722;2023-07-28T14:23:57;1005.706;;;26.08547;62.67183
27437;BME280;14886;51.586;6.722;2023-07-28T14:28:57;1005.634;;;26.17548;61.82805
27437;BME280;14886;51.586;6.722;2023-07-28T14:33:57;1005.741;;;27.76092;60.20205
27437;BME280;14886;51.586;6.722;2023-07-28T14:38:57;1005.813;;;27.85601;58.87266
27437;BME280;14886;51.586;6.722;2023-07-28T14:43:57;1005.575;;;25.88108;63.52385
27437;BME280;14886;51.586;6.722;2023-07-28T14:48:57;1005.589;;;25.8615;65.36793
27437;BME280;14886;51.586;6.722;2023-07-28T14:53:57;1005.578;;;25.27396;66.09065
27437;BME280;14886;51.586;6.722;2023-07-28T14:58:57;1005.694;;;26.53748;63.82496
27437;BME280;14886;51.586;6.722;2023-07-28T15:03:57;1005.752;;;28.77697;58.80803
27437;BME280;14886;51.586;6.722;2023-07-28T15:08:57;1005.551;;;26.04592;63.75786
27437;BME280;14886;51.586;6.722;2023-07-28T15:13:57;1005.681;;;25.04451;67.60111
27437;BME280;14886;51.586;6.722;2023-07-28T15:18:57;1005.692;;;25.70051;66.65193
27437;BME280;14886;51.586;6.722;2023-07-28T15:23:57;1005.642;;;25.39001;67.44287
27437;BME280;14886;51.586;6.722;2023-07-28T15:28:57;1005.607;;;24.78145;69.07179
27437;BME280;14886;51.586;6.722;2023-07-28T15:33:57;1005.665;;;24.47655;71.0796
27437;BME280;14886;51.586;6.722;2023-07-28T15:38:57;1005.765;;;23.70803;72.30646
27437;BME280;14886;51.586;6.722;2023-07-28T15:43:57;1005.889;;;23.71054;73.43476
27437;BME280;14886;51.586;6.722;2023-07-28T15:48:57;1005.935;;;24.95148;70.8158
27437;BME280;14886;51.586;6.722;2023-07-28T15:53:57;1005.913;;;23.7015;73.37419
27437;BME280;14886;51.586;6.722;2023-07-28T15:58:57;1005.935;;;23.87001;73.62403
27437;BME280;14886;51.586;6.722;2023-07-28T16:03:57;1005.967;;;23.82005;73.66128
27437;BME280;14886;51.586;6.722;2023-07-28T16:08:57;1006.012;;;23.66401;74.51221
27437;BME280;14886;51.586;6.722;2023-07-28T16:13:57;1006.002;;;23.972;73.29287
27437;BME280;14886;51.586;6.722;2023-07-28T16:18:57;1006.014;;;24.44351;71.96369
27437;BME280;14886;51.586;6.722;2023-07-28T16:23:57;1006.005;;;24.75105;72.06747
27437;BME280;14886;51.586;6.722;2023-07-28T16:28:57;1005.935;;;24.48048;72.48061
27437;BME280;14886;51.586;6.722;2023-07-28T16:33:57;1005.893;;;23.9995;73.8768
27437;BME280;14886;51.586;6.722;2023-07-28T16:38:57;1005.839;;;24.27607;73.31137
27437;BME280;14886;51.586;6.722;2023-07-28T16:43:57;1005.873;;;24.973;71.15424
27437;BME280;14886;51.586;6.722;2023-07-28T16:48:57;1005.81;;;24.28254;72.43999
27437;BME280;14886;51.586;6.722;2023-07-28T16:53:57;1005.675;;;24.30501;72.08485
27437;BME280;14886;51.586;6.722;2023-07-28T16:58:57;1005.615;;;23.80751;73.45587
27437;BME280;14886;51.586;6.722;2023-07-28T17:06:02;1005.636;;;23.85341;74.04391
27437;BME280;14886;51.586;6.722;2023-07-28T17:11:02;1005.659;;;24.11389;72.93407
27437;BME280;14886;51.586;6.722;2023-07-28T17:16:02;1005.666;;;24.04498;73.29822
27437;BME280;14886;51.586;6.722;2023-07-28T17:21:02;1005.71;;;23.75441;73.43719
27437;BME280;14886;51.586;6.722;2023-07-28T17:26:02;1005.8;;;23.40142;74.43623
27437;BME280;14886;51.586;6.722;2023-07-28T17:31:02;1005.794;;;23.27746;75.17073
27437;BME280;14886;51.586;6.722;2023-07-28T17:36:02;1005.794;;;23.23193;75.54902
27437;BME280;14886;51.586;6.722;2023-07-28T17:41:02;1005.77;;;23.44292;75.04851
27437;BME280;14886;51.586;6.722;2023-07-28T17:46:02;1005.712;;;23.40939;74.81899
27437;BME280;14886;51.586;6.722;2023-07-28T17:51:02;1005.726;;;23.29091;75.46748
27437;BME280;14886;51.586;6.722;2023-07-28T17:56:02;1005.858;;;23.6209;74.36137
27437;BME280;14886;51.586;6.722;2023-07-28T18:01:02;1005.842;;;23.63388;74.4736
27437;BME280;14886;51.586;6.722;2023-07-28T18:06:02;1005.873;;;23.52393;74.70155
27437;BME280;14886;51.586;6.722;2023-07-28T18:11:02;1005.913;;;23.42694;75.30154
27437;BME280;14886;51.586;6.722;2023-07-28T18:16:02;1005.908;;;23.55247;74.43964
27437;BME280;14886;51.586;6.722;2023-07-28T18:21:02;1005.946;;;23.43541;74.36789
27437;BME280;14886;51.586;6.722;2023-07-28T18:26:02;1005.912;;;23.61841;74.30859
27437;BME280;14886;51.586;6.722;2023-07-28T18:31:02;1005.974;;;23.35989;75.47997
27437;BME280;14886;51.586;6.722;2023-07-28T18:36:02;1005.981;;;23.27649;75.86823
27437;BME280;14886;51.586;6.722;2023-07-28T18:41:02;1005.947;;;22.93241;77.43361
27437;BME280;14886;51.586;6.722;2023-07-28T18:46:02;1005.977;;;22.66345;79.11107
27437;BME280;14886;51.586;6.722;2023-07-28T18:51:02;1006.039;;;22.46291;80.00799
27437;BME280;14886;51.586;6.722;2023-07-28T18:56:02;1006.056;;;22.38795;80.07926
27437;BME280;14886;51.586;6.722;2023-07-28T19:01:02;1006.048;;;22.12736;81.10533
27437;BME280;14886;51.586;6.722;2023-07-28T19:06:02;1006.037;;;21.99743;81.70663
27437;BME280;14886;51.586;6.722;2023-07-28T19:11:02;1006.117;;;21.81884;82.32233
27437;BME280;14886;51.586;6.722;2023-07-28T19:16:02;1006.134;;;21.64485;83.02714
27437;BME280;14886;51.586;6.722;2023-07-28T19:21:02;1006.22;;;21.45888;83.89057
27437;BME280;14886;51.586;6.722;2023-07-28T19:26:02;1006.242;;;21.21681;84.99244
27437;BME280;14886;51.586;6.722;2023-07-28T19:31:02;1006.25;;;21.02941;85.84806
27437;BME280;14886;51.586;6.722;2023-07-28T19:36:02;1006.223;;;20.89938;86.23291
27437;BME280;14886;51.586;6.722;2023-07-28T19:41:02;1006.236;;;20.77087;86.81401
27437;BME280;14886;51.586;6.722;2023-07-28T19:46:02;1006.181;;;20.57985;87.79903
27437;BME280;14886;51.586;6.722;2023-07-28T19:51:02;1006.165;;;20.41738;88.22104
27437;BME280;14886;51.586;6.722;2023-07-28T19:56:02;1006.205;;;20.40891;88.51042
27437;BME280;14886;51.586;6.722;2023-07-28T20:01:02;1006.293;;;20.27785;89.12063
27437;BME280;14886;51.586;6.722;2023-07-28T20:06:02;1006.323;;;20.39291;88.68611
27437;BME280;14886;51.586;6.722;2023-07-28T20:11:02;1006.309;;;20.38889;88.787
27437;BME280;14886;51.586;6.722;2023-07-28T20:16:02;1006.317;;;20.20835;89.37726
27437;BME280;14886;51.586;6.722;2023-07-28T20:21:02;1006.356;;;20.15838;89.83721
27437;BME280;14886;51.586;6.722;2023-07-28T20:26:02;1006.421;;;20.25388;89.74538
27437;BME280;14886;51.586;6.722;2023-07-28T20:31:02;1006.344;;;20.38285;89.1462
27437;BME280;14886;51.586;6.722;2023-07-28T20:36:02;1006.345;;;20.33736;89.23695
27437;BME280;14886;51.586;6.722;2023-07-28T20:41:02;1006.363;;;20.39886;88.97774
27437;BME280;14886;51.586;6.722;2023-07-28T20:46:01;1006.387;;;20.50737;88.43492
27437;BME280;14886;51.586;6.722;2023-07-28T20:51:02;1006.373;;;20.60835;88.01049
27437;BME280;14886;51.586;6.722;2023-07-28T20:56:02;1006.273;;;20.61238;87.99894
27437;BME280;14886;51.586;6.722;2023-07-28T21:01:01;1006.283;;;20.70891;88.20689
27437;BME280;14886;51.586;6.722;2023-07-28T21:06:01;1006.312;;;20.83288;86.94649
27437;BME280;14886;51.586;6.722;2023-07-28T21:11:01;1006.306;;;20.80331;86.6776
27437;BME280;14886;51.586;6.722;2023-07-28T21:16:01;1006.334;;;20.99535;86.27226
27437;BME280;14886;51.586;6.722;2023-07-28T21:21:01;1006.327;;;21.23646;84.05457
27437;BME280;14886;51.586;6.722;2023-07-28T21:26:02;1006.319;;;21.2624;84.62997
27437;BME280;14886;51.586;6.722;2023-07-28T21:31:02;1006.357;;;21.25338;85.05433
27437;BME280;14886;51.586;6.722;2023-07-28T21:36:02;1006.378;;;21.22785;85.73071
27437;BME280;14886;51.586;6.722;2023-07-28T21:41:01;1006.435;;;21.12487;86.16816
27437;BME280;14886;51.586;6.722;2023-07-28T21:46:02;1006.413;;;21.11191;85.93245
27437;BME280;14886;51.586;6.722;2023-07-28T21:51:01;1006.35;;;21.05241;86.33556
27437;BME280;14886;51.586;6.722;2023-07-28T21:56:01;1006.322;;;20.95242;86.87346
27437;BME280;14886;51.586;6.722;2023-07-28T22:01:02;1006.29;;;20.82991;87.37279
27437;BME280;14886;51.586;6.722;2023-07-28T22:06:01;1006.306;;;20.71441;87.56204
27437;BME280;14886;51.586;6.722;2023-07-28T22:11:01;1006.293;;;20.65741;87.58481
27437;BME280;14886;51.586;6.722;2023-07-28T22:16:01;1006.3;;;20.52338;88.06577
27437;BME280;14886;51.586;6.722;2023-07-28T22:21:01;1006.348;;;20.37386;88.54227
27437;BME280;14886;51.586;6.722;2023-07-28T22:26:01;1006.332;;;20.3514;88.71834
27437;BME280;14886;51.586;6.722;2023-07-28T22:31:01;1006.338;;;20.23238;89.16554
27437;BME280;14886;51.586;6.722;2023-07-28T22:36:01;1006.35;;;20.18088;89.24167
27437;BME280;14886;51.586;6.722;2023-07-28T22:41:01;1006.291;;;20.07691;89.64499
27437;BME280;14886;51.586;6.722;2023-07-28T22:46:01;1006.295;;;19.9854;89.75768
27437;BME280;14886;51.586;6.722;2023-07-28T22:51:01;1006.238;;;19.8649;89.97186
27437;BME280;14886;51.586;6.722;2023-07-28T22:56:02;1006.212;;;19.81291;89.87152
27437;BME280;14886;51.586;6.722;2023-07-28T23:01:01;1006.174;;;19.71088;90.18199
27437;BME280;14886;51.586;6.722;2023-07-28T23:06:01;1006.208;;;19.68388;90.28223
27437;BME280;14886;51.586;6.722;2023-07-28T23:11:01;1006.154;;;19.56438;90.80381
27437;BME280;14886;51.586;6.722;2023-07-28T23:16:01;1006.064;;;19.50893;90.90681
27437;BME280;14886;51.586;6.722;2023-07-28T23:21:02;1006.132;;;19.45888;90.92444
27437;BME280;14886;51.586;6.722;2023-07-28T23:26:01;1006.077;;;19.32588;91.22937
27437;BME280;14886;51.586;6.722;2023-07-28T23:36:01;1005.9;;;19.16888;91.6612
27437;BME280;14886;51.586;6.722;2023-07-28T23:41:01;1005.898;;;19.09241;91.98378
27437;BME280;14886;51.586;6.722;2023-07-28T23:46:01;1005.817;;;19.01838;92.22215
27437;BME280;14886;51.586;6.722;2023-07-28T23:51:01;1005.776;;;18.92793;92.48395
27437;BME280;14886;51.586;6.722;2023-07-28T23:56:01;1005.845;;;18.82787;92.88377
